createdAt,value
2019-04-25T00:00:13.768Z,94998
2019-04-25T00:01:24.300Z,94997
2019-04-25T00:02:33.807Z,94997
2019-04-25T00:03:44.694Z,94994
2019-04-25T00:04:54.838Z,94992
2019-04-25T00:06:05.355Z,94990
2019-04-25T00:07:14.869Z,94989
2019-04-25T00:08:24.380Z,94992
2019-04-25T00:09:33.907Z,94993
2019-04-25T00:10:44.422Z,94994
2019-04-25T00:11:54.958Z,94993
2019-04-25T00:13:05.446Z,94991
2019-04-25T00:14:14.961Z,94995
2019-04-25T00:15:25.453Z,94992
2019-04-25T00:16:34.972Z,94986
2019-04-25T00:17:46.192Z,94987
2019-04-25T00:18:54.965Z,94987
2019-04-25T00:20:04.476Z,94987
2019-04-25T00:21:13.992Z,94992
2019-04-25T00:22:24.494Z,94997
2019-04-25T00:23:35.005Z,94993
2019-04-25T00:24:45.552Z,94994
2019-04-25T00:25:56.065Z,94992
2019-04-25T00:27:05.605Z,95002
2019-04-25T00:28:15.127Z,95001
2019-04-25T00:29:24.636Z,95010
2019-04-25T00:30:35.179Z,95008
2019-04-25T00:31:45.812Z,95011
2019-04-25T00:32:56.151Z,95009
2019-04-25T00:34:05.645Z,95006
2019-04-25T00:35:15.144Z,95009
2019-04-25T00:36:24.678Z,95013
2019-04-25T00:37:35.182Z,95014
2019-04-25T00:38:47.635Z,95012
2019-04-25T00:39:56.165Z,95012
2019-04-25T00:41:05.685Z,95014
2019-04-25T00:42:15.206Z,95015
2019-04-25T00:43:25.759Z,95013
2019-04-25T00:44:35.253Z,95014
2019-04-25T00:45:45.793Z,95015
2019-04-25T00:46:56.745Z,95016
2019-04-25T00:48:05.753Z,95016
2019-04-25T00:49:15.284Z,95020
2019-04-25T00:50:25.779Z,95017
2019-04-25T00:51:35.317Z,95016
2019-04-25T00:52:46.214Z,95016
2019-04-25T00:53:56.352Z,95016
2019-04-25T00:55:05.879Z,95018
2019-04-25T00:56:16.400Z,95022
2019-04-25T00:57:25.948Z,95020
2019-04-25T00:58:35.457Z,95021
2019-04-25T00:59:46.648Z,95027
2019-04-25T01:00:56.456Z,95024
2019-04-25T01:02:07.591Z,95025
2019-04-25T01:03:15.493Z,95017
2019-04-25T01:04:25.023Z,95018
2019-04-25T01:05:34.540Z,95017
2019-04-25T01:06:45.456Z,95009
2019-04-25T01:07:55.535Z,95012
2019-04-25T01:09:05.102Z,95014
2019-04-25T01:10:15.605Z,95013
2019-04-25T01:11:26.112Z,95016
2019-04-25T01:12:35.620Z,95009
2019-04-25T01:13:45.162Z,95016
2019-04-25T01:14:55.658Z,95010
2019-04-25T01:16:05.148Z,95012
2019-04-25T01:17:14.648Z,95007
2019-04-25T01:18:25.289Z,95012
2019-04-25T01:19:34.687Z,95005
2019-04-25T01:20:45.486Z,94997
2019-04-25T01:21:55.195Z,95000
2019-04-25T01:23:04.202Z,95003
2019-04-25T01:24:14.096Z,95006
2019-04-25T01:25:23.413Z,95010
2019-04-25T01:26:33.926Z,95009
2019-04-25T01:27:43.385Z,95007
2019-04-25T01:28:54.020Z,95011
2019-04-25T01:30:03.968Z,95012
2019-04-25T01:31:13.599Z,95008
2019-04-25T01:32:21.369Z,95005
2019-04-25T01:33:30.889Z,95006
2019-04-25T01:34:40.430Z,95004
2019-04-25T01:35:50.583Z,95001
2019-04-25T01:36:59.452Z,94995
2019-04-25T01:38:08.970Z,94992
2019-04-25T01:39:18.488Z,94992
2019-04-25T01:40:28.022Z,94998
2019-04-25T01:41:38.542Z,94995
2019-04-25T01:42:48.043Z,94992
2019-04-25T01:43:59.605Z,94993
2019-04-25T01:45:07.091Z,94992
2019-04-25T01:46:16.621Z,94993
2019-04-25T01:47:27.123Z,94988
2019-04-25T01:48:36.633Z,94986
2019-04-25T01:49:46.167Z,94987
2019-04-25T01:50:56.690Z,94987
2019-04-25T01:52:07.203Z,94995
2019-04-25T01:53:16.711Z,94997
2019-04-25T01:54:27.223Z,95000
2019-04-25T01:55:36.734Z,94995
2019-04-25T01:56:47.251Z,94995
2019-04-25T01:57:57.744Z,94992
2019-04-25T01:59:07.250Z,94990
2019-04-25T02:00:17.762Z,94986
2019-04-25T02:01:27.286Z,94992
2019-04-25T02:02:36.807Z,94993
2019-04-25T02:03:46.308Z,94999
2019-04-25T02:04:57.918Z,94996
2019-04-25T02:06:07.316Z,94995
2019-04-25T02:07:16.857Z,94998
2019-04-25T02:08:26.365Z,94994
2019-04-25T02:09:36.880Z,94992
2019-04-25T02:10:46.398Z,94989
2019-04-25T02:11:56.924Z,94992
2019-04-25T02:13:07.434Z,94988
2019-04-25T02:14:16.954Z,94987
2019-04-25T02:15:26.457Z,94996
2019-04-25T02:16:35.963Z,94988
2019-04-25T02:17:46.460Z,94986
2019-04-25T02:18:57.721Z,94988
2019-04-25T02:20:06.484Z,94981
2019-04-25T02:21:16.976Z,94979
2019-04-25T02:22:26.478Z,94978
2019-04-25T02:23:36.989Z,94984
2019-04-25T02:24:47.506Z,94985
2019-04-25T02:26:08.880Z,94988
2019-04-25T02:27:08.480Z,94987
2019-04-25T02:28:17.986Z,94989
2019-04-25T02:29:27.511Z,94989
2019-04-25T02:30:37.003Z,94987
2019-04-25T02:31:47.529Z,94992
2019-04-25T02:33:00.422Z,94988
2019-04-25T02:34:08.847Z,94988
2019-04-25T02:35:19.003Z,94988
2019-04-25T02:36:29.487Z,94984
2019-04-25T02:37:38.994Z,94984
2019-04-25T02:38:48.480Z,94989
2019-04-25T02:40:01.232Z,94991
2019-04-25T02:41:09.463Z,94992
2019-04-25T02:42:18.975Z,94994
2019-04-25T02:43:28.488Z,94987
2019-04-25T02:44:38.002Z,94990
2019-04-25T02:45:47.507Z,94986
2019-04-25T02:47:00.144Z,94987
2019-04-25T02:48:08.501Z,94985
2019-04-25T02:49:29.247Z,94986
2019-04-25T02:50:28.486Z,94985
2019-04-25T02:51:38.006Z,94984
2019-04-25T02:52:47.530Z,94989
2019-04-25T02:53:58.031Z,94990
2019-04-25T02:55:10.900Z,94988
2019-04-25T02:56:29.707Z,94989
2019-04-25T02:57:29.475Z,94986
2019-04-25T02:58:38.980Z,94987
2019-04-25T02:59:48.497Z,94987
2019-04-25T03:01:07.871Z,94987
2019-04-25T03:02:09.489Z,94979
2019-04-25T03:03:18.957Z,94981
2019-04-25T03:04:28.484Z,94980
2019-04-25T03:05:38.045Z,94979
2019-04-25T03:06:48.526Z,94976
2019-04-25T03:07:59.609Z,94977
2019-04-25T03:09:09.771Z,94973
2019-04-25T03:10:18.027Z,94978
2019-04-25T03:11:28.539Z,94981
2019-04-25T03:12:38.038Z,94982
2019-04-25T03:13:47.537Z,94983
2019-04-25T03:14:58.344Z,94979
2019-04-25T03:16:10.575Z,94973
2019-04-25T03:17:18.031Z,94972
2019-04-25T03:18:27.570Z,94975
2019-04-25T03:19:38.068Z,94978
2019-04-25T03:20:47.574Z,94982
2019-04-25T03:21:58.623Z,94980
2019-04-25T03:23:09.453Z,94980
2019-04-25T03:24:18.074Z,94978
2019-04-25T03:25:27.591Z,94979
2019-04-25T03:26:39.904Z,94974
2019-04-25T03:27:47.588Z,94973
2019-04-25T03:28:57.114Z,94981
2019-04-25T03:30:11.687Z,94975
2019-04-25T03:31:22.320Z,94979
2019-04-25T03:32:28.703Z,94981
2019-04-25T03:33:39.083Z,94982
2019-04-25T03:34:49.585Z,94990
2019-04-25T03:35:59.081Z,94989
2019-04-25T03:37:09.573Z,94987
2019-04-25T03:38:19.079Z,94985
2019-04-25T03:39:28.600Z,94985
2019-04-25T03:40:38.112Z,94986
2019-04-25T03:41:47.618Z,94987
2019-04-25T03:42:57.121Z,94986
2019-04-25T03:44:07.992Z,94992
2019-04-25T03:45:17.165Z,94991
2019-04-25T03:46:26.687Z,94986
2019-04-25T03:47:36.199Z,94989
2019-04-25T03:48:45.741Z,94989
2019-04-25T03:49:55.463Z,94990
2019-04-25T03:51:05.702Z,94993
2019-04-25T03:52:14.362Z,94991
2019-04-25T03:53:24.026Z,94991
2019-04-25T03:54:33.475Z,94996
2019-04-25T03:55:44.308Z,94989
2019-04-25T03:56:55.509Z,94988
2019-04-25T03:58:03.228Z,94989
2019-04-25T03:59:14.186Z,94984
2019-04-25T04:00:21.859Z,94985
2019-04-25T04:01:31.357Z,94987
2019-04-25T04:02:40.877Z,94992
2019-04-25T04:03:50.449Z,94996
2019-04-25T04:04:59.999Z,94997
2019-04-25T04:06:10.478Z,94999
2019-04-25T04:07:19.977Z,94993
2019-04-25T04:08:29.481Z,94992
2019-04-25T04:09:39.003Z,94987
2019-04-25T04:10:48.605Z,94990
2019-04-25T04:11:58.223Z,94991
2019-04-25T04:13:08.732Z,94995
2019-04-25T04:14:19.265Z,94991
2019-04-25T04:15:28.774Z,94990
2019-04-25T04:16:38.295Z,94990
2019-04-25T04:17:47.791Z,94994
2019-04-25T04:18:57.295Z,94995
2019-04-25T04:20:07.821Z,94993
2019-04-25T04:21:18.323Z,94992
2019-04-25T04:22:27.817Z,94993
2019-04-25T04:23:37.333Z,94991
2019-04-25T04:24:46.866Z,94996
2019-04-25T04:25:56.379Z,94994
2019-04-25T04:27:07.774Z,94999
2019-04-25T04:28:16.007Z,94998
2019-04-25T04:29:25.536Z,95000
2019-04-25T04:30:34.394Z,95003
2019-04-25T04:31:43.907Z,95006
2019-04-25T04:32:53.700Z,95014
2019-04-25T04:34:03.751Z,95006
2019-04-25T04:35:14.389Z,95008
2019-04-25T04:36:21.987Z,95012
2019-04-25T04:37:33.177Z,95010
2019-04-25T04:38:41.024Z,95008
2019-04-25T04:39:50.525Z,95014
2019-04-25T04:41:00.026Z,95015
2019-04-25T04:42:09.655Z,95010
2019-04-25T04:43:19.031Z,95011
2019-04-25T04:44:28.555Z,95013
2019-04-25T04:45:38.056Z,95017
2019-04-25T04:46:48.539Z,95020
2019-04-25T04:47:58.036Z,95018
2019-04-25T04:49:08.660Z,95019
2019-04-25T04:50:18.718Z,95019
2019-04-25T04:51:28.623Z,95013
2019-04-25T04:52:38.146Z,95016
2019-04-25T04:53:47.669Z,95013
2019-04-25T04:55:05.150Z,95009
2019-04-25T04:56:07.654Z,95006
2019-04-25T04:57:26.913Z,95007
2019-04-25T04:58:28.634Z,95006
2019-04-25T04:59:38.129Z,95012
2019-04-25T05:00:47.675Z,95018
2019-04-25T05:01:57.202Z,95010
2019-04-25T05:03:06.714Z,95012
2019-04-25T05:04:17.206Z,95011
2019-04-25T05:05:30.363Z,95005
2019-04-25T05:06:37.223Z,95012
2019-04-25T05:07:46.747Z,95014
2019-04-25T05:08:57.268Z,95015
2019-04-25T05:10:06.800Z,95013
2019-04-25T05:11:18.155Z,95016
2019-04-25T05:12:27.778Z,95016
2019-04-25T05:13:37.297Z,95022
2019-04-25T05:14:46.858Z,95025
2019-04-25T05:15:56.370Z,95026
2019-04-25T05:17:05.900Z,95018
2019-04-25T05:18:20.681Z,95024
2019-04-25T05:19:25.895Z,95022
2019-04-25T05:20:36.390Z,95017
2019-04-25T05:21:46.881Z,95014
2019-04-25T05:22:56.380Z,95017
2019-04-25T05:24:05.889Z,95021
2019-04-25T05:25:17.726Z,95029
2019-04-25T05:26:26.902Z,95025
2019-04-25T05:27:46.469Z,95025
2019-04-25T05:28:47.885Z,95017
2019-04-25T05:29:57.391Z,95024
2019-04-25T05:31:06.904Z,95023
2019-04-25T05:32:18.150Z,95024
2019-04-25T05:33:27.902Z,95024
2019-04-25T05:34:37.407Z,95022
2019-04-25T05:35:46.940Z,95024
2019-04-25T05:36:56.437Z,95018
2019-04-25T05:38:06.933Z,95019
2019-04-25T05:39:18.159Z,95021
2019-04-25T05:40:27.918Z,95012
2019-04-25T05:41:37.438Z,95014
2019-04-25T05:42:46.956Z,95013
2019-04-25T05:43:57.453Z,95015
2019-04-25T05:45:06.978Z,95016
2019-04-25T05:46:17.493Z,95013
2019-04-25T05:47:28.008Z,95013
2019-04-25T05:48:37.510Z,95012
2019-04-25T05:49:47.018Z,95019
2019-04-25T05:50:57.532Z,95016
2019-04-25T05:52:07.041Z,95015
2019-04-25T05:53:16.571Z,95008
2019-04-25T05:54:27.080Z,95011
2019-04-25T05:55:37.626Z,95010
2019-04-25T05:56:47.155Z,95010
2019-04-25T05:57:56.683Z,95009
2019-04-25T05:59:07.187Z,95009
2019-04-25T06:00:17.891Z,95007
2019-04-25T06:01:29.101Z,95005
2019-04-25T06:02:37.681Z,95001
2019-04-25T06:03:48.179Z,95010
2019-04-25T06:04:57.685Z,95013
2019-04-25T06:06:07.209Z,95013
2019-04-25T06:07:17.876Z,95019
2019-04-25T06:08:28.028Z,95018
2019-04-25T06:09:36.709Z,95018
2019-04-25T06:10:47.233Z,95018
2019-04-25T06:11:56.749Z,95020
2019-04-25T06:13:07.258Z,95020
2019-04-25T06:14:18.247Z,95019
2019-04-25T06:15:28.007Z,95010
2019-04-25T06:16:36.782Z,95008
2019-04-25T06:17:46.292Z,95009
2019-04-25T06:18:56.806Z,95010
2019-04-25T06:20:07.293Z,95010
2019-04-25T06:21:16.817Z,95008
2019-04-25T06:22:27.611Z,95014
2019-04-25T06:23:37.122Z,95009
2019-04-25T06:24:47.626Z,95011
2019-04-25T06:25:57.206Z,95004
2019-04-25T06:27:07.700Z,95005
2019-04-25T06:28:17.209Z,95009
2019-04-25T06:29:28.135Z,95013
2019-04-25T06:30:37.289Z,95011
2019-04-25T06:31:46.831Z,95013
2019-04-25T06:32:57.327Z,95010
2019-04-25T06:34:06.834Z,95006
2019-04-25T06:35:17.325Z,95013
2019-04-25T06:36:27.853Z,95012
2019-04-25T06:37:38.342Z,95011
2019-04-25T06:38:47.832Z,95008
2019-04-25T06:39:57.347Z,95006
2019-04-25T06:41:07.875Z,95011
2019-04-25T06:42:17.365Z,95010
2019-04-25T06:43:28.044Z,95007
2019-04-25T06:44:37.367Z,95007
2019-04-25T06:45:46.867Z,95011
2019-04-25T06:46:57.383Z,95011
2019-04-25T06:48:06.883Z,95003
2019-04-25T06:49:16.412Z,95003
2019-04-25T06:50:27.079Z,95002
2019-04-25T06:51:37.420Z,95004
2019-04-25T06:52:47.923Z,95009
2019-04-25T06:53:57.459Z,95009
2019-04-25T06:55:06.953Z,95017
2019-04-25T06:56:17.472Z,95006
2019-04-25T06:57:29.014Z,95008
2019-04-25T06:58:37.454Z,95009
2019-04-25T06:59:46.966Z,95010
2019-04-25T07:01:00.173Z,95010
2019-04-25T07:02:05.984Z,95005
2019-04-25T07:03:16.478Z,95013
2019-04-25T07:04:27.965Z,95004
2019-04-25T07:05:40.334Z,95008
2019-04-25T07:06:49.388Z,95011
2019-04-25T07:07:56.460Z,95001
2019-04-25T07:09:05.980Z,95005
2019-04-25T07:10:15.479Z,95003
2019-04-25T07:11:26.943Z,95003
2019-04-25T07:12:36.480Z,95004
2019-04-25T07:13:46.971Z,95011
2019-04-25T07:14:56.470Z,95006
2019-04-25T07:16:06.972Z,95002
2019-04-25T07:17:16.482Z,95003
2019-04-25T07:18:30.462Z,95000
2019-04-25T07:19:37.483Z,94994
2019-04-25T07:20:46.992Z,94995
2019-04-25T07:21:56.503Z,94995
2019-04-25T07:23:07.009Z,94993
2019-04-25T07:24:17.543Z,94999
2019-04-25T07:25:27.581Z,94999
2019-04-25T07:26:39.681Z,94993
2019-04-25T07:27:47.010Z,94995
2019-04-25T07:28:56.530Z,94994
2019-04-25T07:30:06.032Z,94992
2019-04-25T07:31:16.544Z,94994
2019-04-25T07:32:29.647Z,94995
2019-04-25T07:33:37.519Z,94995
2019-04-25T07:34:47.031Z,95000
2019-04-25T07:35:57.132Z,94991
2019-04-25T07:37:07.048Z,94992
2019-04-25T07:38:16.556Z,94993
2019-04-25T07:39:27.480Z,94988
2019-04-25T07:40:37.518Z,94995
2019-04-25T07:41:47.028Z,94993
2019-04-25T07:42:56.568Z,94998
2019-04-25T07:44:06.066Z,94996
2019-04-25T07:45:15.591Z,94994
2019-04-25T07:46:26.185Z,94993
2019-04-25T07:47:36.393Z,94989
2019-04-25T07:48:45.109Z,94986
2019-04-25T07:49:54.619Z,94987
2019-04-25T07:51:04.114Z,94987
2019-04-25T07:52:13.691Z,94983
2019-04-25T07:53:24.004Z,94990
2019-04-25T07:54:34.329Z,94987
2019-04-25T07:55:43.338Z,94985
2019-04-25T07:56:54.729Z,94984
2019-04-25T07:58:03.151Z,94985
2019-04-25T07:59:11.650Z,94986
2019-04-25T08:00:21.175Z,94982
2019-04-25T08:01:31.063Z,94982
2019-04-25T08:02:41.961Z,94985
2019-04-25T08:03:50.672Z,94984
2019-04-25T08:05:00.178Z,94981
2019-04-25T08:06:09.680Z,94982
2019-04-25T08:07:19.191Z,94981
2019-04-25T08:08:29.693Z,94989
2019-04-25T08:09:38.195Z,94981
2019-04-25T08:10:47.690Z,94985
2019-04-25T08:11:57.229Z,94987
2019-04-25T08:13:06.753Z,94983
2019-04-25T08:14:16.265Z,94985
2019-04-25T08:15:28.216Z,94983
2019-04-25T08:16:37.267Z,94981
2019-04-25T08:17:46.780Z,94979
2019-04-25T08:18:57.290Z,94979
2019-04-25T08:20:06.791Z,94982
2019-04-25T08:21:17.315Z,94976
2019-04-25T08:22:26.825Z,94978
2019-04-25T08:23:38.823Z,94979
2019-04-25T08:24:46.843Z,94978
2019-04-25T08:25:56.353Z,94977
2019-04-25T08:27:06.887Z,94974
2019-04-25T08:28:16.396Z,94974
2019-04-25T08:29:26.903Z,94976
2019-04-25T08:30:38.122Z,94970
2019-04-25T08:31:46.917Z,94968
2019-04-25T08:32:56.439Z,94966
2019-04-25T08:34:06.947Z,94977
2019-04-25T08:35:17.471Z,94976
2019-04-25T08:36:26.989Z,94977
2019-04-25T08:37:37.892Z,94976
2019-04-25T08:38:47.008Z,94973
2019-04-25T08:39:56.524Z,94970
2019-04-25T08:41:07.003Z,94971
2019-04-25T08:42:16.526Z,94973
2019-04-25T08:43:27.025Z,94979
2019-04-25T08:44:37.506Z,94982
2019-04-25T08:45:48.014Z,94981
2019-04-25T08:46:57.542Z,94979
2019-04-25T08:48:07.053Z,94974
2019-04-25T08:49:16.583Z,94977
2019-04-25T08:50:31.241Z,94974
2019-04-25T08:51:37.847Z,94974
2019-04-25T08:52:47.088Z,94974
2019-04-25T08:53:57.603Z,94973
2019-04-25T08:55:07.122Z,94967
2019-04-25T08:56:17.611Z,94971
2019-04-25T08:57:27.137Z,94970
2019-04-25T08:58:37.626Z,94969
2019-04-25T08:59:52.128Z,94970
2019-04-25T09:01:00.494Z,94972
2019-04-25T09:02:07.104Z,94975
2019-04-25T09:03:16.610Z,94970
2019-04-25T09:04:27.110Z,94969
2019-04-25T09:05:38.740Z,94967
2019-04-25T09:06:48.126Z,94965
2019-04-25T09:07:57.668Z,94964
2019-04-25T09:09:07.296Z,94964
2019-04-25T09:10:16.744Z,94963
2019-04-25T09:11:26.242Z,94957
2019-04-25T09:12:37.719Z,94958
2019-04-25T09:13:47.220Z,94958
2019-04-25T09:14:56.716Z,94963
2019-04-25T09:16:07.225Z,94954
2019-04-25T09:17:17.756Z,94956
2019-04-25T09:18:27.249Z,94962
2019-04-25T09:19:38.455Z,94959
2019-04-25T09:20:48.248Z,94959
2019-04-25T09:21:57.796Z,94958
2019-04-25T09:23:07.297Z,94965
2019-04-25T09:24:16.827Z,94961
2019-04-25T09:25:27.313Z,94962
2019-04-25T09:26:38.315Z,94958
2019-04-25T09:27:48.315Z,94955
2019-04-25T09:28:57.808Z,94958
2019-04-25T09:30:08.318Z,94953
2019-04-25T09:31:17.833Z,94960
2019-04-25T09:32:27.338Z,94958
2019-04-25T09:33:37.838Z,94960
2019-04-25T09:34:48.343Z,94961
2019-04-25T09:35:58.019Z,94960
2019-04-25T09:37:07.549Z,94959
2019-04-25T09:38:17.066Z,94956
2019-04-25T09:39:27.558Z,94959
2019-04-25T09:40:38.051Z,94957
2019-04-25T09:41:48.549Z,94957
2019-04-25T09:42:58.063Z,94956
2019-04-25T09:44:07.554Z,94965
2019-04-25T09:45:17.061Z,94956
2019-04-25T09:46:27.555Z,94952
2019-04-25T09:47:38.079Z,94954
2019-04-25T09:48:48.568Z,94958
2019-04-25T09:49:59.061Z,94960
2019-04-25T09:51:08.558Z,94952
2019-04-25T09:52:18.090Z,94952
2019-04-25T09:53:27.600Z,94952
2019-04-25T09:54:38.133Z,94954
2019-04-25T09:55:48.272Z,94951
2019-04-25T09:56:57.124Z,94953
2019-04-25T09:58:06.652Z,94948
2019-04-25T09:59:26.662Z,94956
2019-04-25T10:00:27.629Z,94943
2019-04-25T10:01:37.900Z,94942
2019-04-25T10:02:47.659Z,94940
2019-04-25T10:03:58.152Z,94939
2019-04-25T10:05:07.659Z,94939
2019-04-25T10:06:17.178Z,94943
2019-04-25T10:07:26.700Z,94938
2019-04-25T10:08:36.968Z,94937
2019-04-25T10:09:46.719Z,94942
2019-04-25T10:10:57.222Z,94938
2019-04-25T10:12:06.747Z,94946
2019-04-25T10:13:17.276Z,94937
2019-04-25T10:14:27.802Z,94938
2019-04-25T10:15:37.506Z,94937
2019-04-25T10:16:47.807Z,94930
2019-04-25T10:17:57.323Z,94926
2019-04-25T10:19:06.819Z,94927
2019-04-25T10:20:16.337Z,94928
2019-04-25T10:21:25.836Z,94922
2019-04-25T10:22:35.375Z,94928
2019-04-25T10:23:46.764Z,94929
2019-04-25T10:25:00.068Z,94922
2019-04-25T10:26:05.863Z,94923
2019-04-25T10:27:15.374Z,94919
2019-04-25T10:28:24.887Z,94917
2019-04-25T10:29:42.143Z,94916
2019-04-25T10:30:44.857Z,94913
2019-04-25T10:31:55.728Z,94913
2019-04-25T10:33:04.115Z,94921
2019-04-25T10:34:14.033Z,94908
2019-04-25T10:35:23.851Z,94909
2019-04-25T10:36:33.604Z,94910
2019-04-25T10:37:43.701Z,94906
2019-04-25T10:39:03.954Z,94905
2019-04-25T10:40:04.296Z,94902
2019-04-25T10:41:14.007Z,94901
2019-04-25T10:42:23.474Z,94906
2019-04-25T10:43:31.438Z,94903
2019-04-25T10:44:41.930Z,94898
2019-04-25T10:45:51.433Z,94900
2019-04-25T10:47:00.935Z,94897
2019-04-25T10:48:10.479Z,94897
2019-04-25T10:49:19.957Z,94897
2019-04-25T10:50:29.457Z,94900
2019-04-25T10:51:39.882Z,94905
2019-04-25T10:52:48.472Z,94897
2019-04-25T10:53:57.990Z,94899
2019-04-25T10:55:07.499Z,94897
2019-04-25T10:56:17.021Z,94901
2019-04-25T10:57:27.509Z,94894
2019-04-25T10:58:37.021Z,94891
2019-04-25T10:59:59.005Z,94892
2019-04-25T11:00:57.987Z,94894
2019-04-25T11:02:07.513Z,94893
2019-04-25T11:03:18.032Z,94884
2019-04-25T11:04:28.530Z,94890
2019-04-25T11:05:38.031Z,94900
2019-04-25T11:06:49.297Z,94894
2019-04-25T11:07:58.061Z,94890
2019-04-25T11:09:07.592Z,94885
2019-04-25T11:10:17.098Z,94890
2019-04-25T11:11:26.601Z,94885
2019-04-25T11:12:37.096Z,94891
2019-04-25T11:13:48.447Z,94888
2019-04-25T11:14:58.093Z,94888
2019-04-25T11:16:07.619Z,94888
2019-04-25T11:17:17.121Z,94888
2019-04-25T11:18:27.641Z,94879
2019-04-25T11:19:37.389Z,94888
2019-04-25T11:20:47.661Z,94886
2019-04-25T11:21:58.141Z,94891
2019-04-25T11:23:07.653Z,94881
2019-04-25T11:24:17.202Z,94877
2019-04-25T11:25:26.707Z,94877
2019-04-25T11:26:37.200Z,94878
2019-04-25T11:27:49.615Z,94875
2019-04-25T11:28:58.601Z,94884
2019-04-25T11:30:10.563Z,94885
2019-04-25T11:31:17.185Z,94891
2019-04-25T11:32:26.689Z,94889
2019-04-25T11:33:37.200Z,94886
2019-04-25T11:34:47.299Z,94881
2019-04-25T11:35:57.200Z,94878
2019-04-25T11:37:06.707Z,94875
2019-04-25T11:38:17.220Z,94876
2019-04-25T11:39:26.795Z,94878
2019-04-25T11:40:37.307Z,94882
2019-04-25T11:41:48.269Z,94884
2019-04-25T11:42:58.322Z,94878
2019-04-25T11:44:07.841Z,94880
2019-04-25T11:45:17.373Z,94874
2019-04-25T11:46:26.883Z,94872
2019-04-25T11:47:36.410Z,94868
2019-04-25T11:48:46.908Z,94871
2019-04-25T11:49:57.415Z,94872
2019-04-25T11:51:06.944Z,94884
2019-04-25T11:52:26.849Z,94864
2019-04-25T11:53:26.949Z,94869
2019-04-25T11:54:36.504Z,94869
2019-04-25T11:55:48.134Z,94870
2019-04-25T11:56:57.491Z,94872
2019-04-25T11:58:06.993Z,94863
2019-04-25T11:59:17.517Z,94862
2019-04-25T12:00:27.011Z,94864
2019-04-25T12:01:36.506Z,94865
2019-04-25T12:02:47.532Z,94869
2019-04-25T12:03:57.550Z,94866
2019-04-25T12:05:07.070Z,94872
2019-04-25T12:06:17.570Z,94867
2019-04-25T12:07:27.091Z,94864
2019-04-25T12:08:36.612Z,94863
2019-04-25T12:09:48.064Z,94861
2019-04-25T12:10:57.605Z,94862
2019-04-25T12:12:07.126Z,94868
2019-04-25T12:13:17.627Z,94864
2019-04-25T12:14:27.138Z,94883
2019-04-25T12:15:37.640Z,94862
2019-04-25T12:16:50.108Z,94854
2019-04-25T12:17:58.612Z,94853
2019-04-25T12:19:08.127Z,94861
2019-04-25T12:20:17.627Z,94858
2019-04-25T12:21:27.127Z,94868
2019-04-25T12:22:36.640Z,94850
2019-04-25T12:23:47.696Z,94849
2019-04-25T12:24:56.655Z,94849
2019-04-25T12:26:07.163Z,94847
2019-04-25T12:27:17.663Z,94878
2019-04-25T12:28:27.163Z,94865
2019-04-25T12:29:38.786Z,94860
2019-04-25T12:30:47.413Z,94857
2019-04-25T12:31:58.581Z,94865
2019-04-25T12:33:18.215Z,94861
2019-04-25T12:34:17.660Z,94861
2019-04-25T12:35:27.178Z,94859
2019-04-25T12:36:36.688Z,94860
2019-04-25T12:37:48.084Z,94862
2019-04-25T12:38:57.681Z,94864
2019-04-25T12:40:07.202Z,94860
2019-04-25T12:41:16.724Z,94858
2019-04-25T12:42:26.237Z,94861
2019-04-25T12:43:36.730Z,94867
2019-04-25T12:44:47.757Z,94867
2019-04-25T12:45:58.280Z,94858
2019-04-25T12:47:07.224Z,94862
2019-04-25T12:48:16.742Z,94864
2019-04-25T12:49:26.275Z,94862
2019-04-25T12:50:36.764Z,94859
2019-04-25T12:51:47.753Z,94854
2019-04-25T12:52:56.787Z,94852
2019-04-25T12:54:06.611Z,94856
2019-04-25T12:55:16.814Z,94855
2019-04-25T12:56:27.307Z,94843
2019-04-25T12:57:36.813Z,94853
2019-04-25T12:58:47.851Z,94858
2019-04-25T12:59:57.564Z,94857
2019-04-25T13:01:07.317Z,94855
2019-04-25T13:02:16.829Z,94861
2019-04-25T13:03:26.339Z,94848
2019-04-25T13:04:36.844Z,94849
2019-04-25T13:05:47.380Z,94850
2019-04-25T13:06:57.692Z,94845
2019-04-25T13:08:07.369Z,94845
2019-04-25T13:09:16.891Z,94842
2019-04-25T13:10:26.445Z,94858
2019-04-25T13:11:35.940Z,94852
2019-04-25T13:12:46.446Z,94839
2019-04-25T13:13:56.938Z,94839
2019-04-25T13:15:06.466Z,94842
2019-04-25T13:16:15.976Z,94846
2019-04-25T13:17:25.495Z,94849
2019-04-25T13:18:35.014Z,94854
2019-04-25T13:19:44.525Z,94852
2019-04-25T13:20:55.315Z,94838
2019-04-25T13:22:03.552Z,94848
2019-04-25T13:23:14.375Z,94855
2019-04-25T13:24:22.568Z,94857
2019-04-25T13:25:32.082Z,94849
2019-04-25T13:26:41.594Z,94843
2019-04-25T13:27:51.111Z,94846
2019-04-25T13:29:01.612Z,94835
2019-04-25T13:30:11.132Z,94841
2019-04-25T13:31:20.659Z,94832
2019-04-25T13:32:30.177Z,94839
2019-04-25T13:33:39.694Z,94841
2019-04-25T13:34:49.195Z,94845
2019-04-25T13:35:59.709Z,94854
2019-04-25T13:37:09.206Z,94831
2019-04-25T13:38:19.708Z,94840
2019-04-25T13:39:29.212Z,94847
2019-04-25T13:40:38.739Z,94835
2019-04-25T13:41:48.248Z,94833
2019-04-25T13:42:58.745Z,94836
2019-04-25T13:44:09.291Z,94841
2019-04-25T13:45:18.791Z,94833
2019-04-25T13:46:28.341Z,94844
2019-04-25T13:47:37.825Z,94835
2019-04-25T13:48:47.334Z,94843
2019-04-25T13:49:56.845Z,94836
2019-04-25T13:51:06.365Z,94837
2019-04-25T13:52:17.743Z,94836
2019-04-25T13:53:27.262Z,94835
2019-04-25T13:54:36.864Z,94833
2019-04-25T13:55:46.404Z,94839
2019-04-25T13:56:55.899Z,94832
2019-04-25T13:58:06.397Z,94833
2019-04-25T13:59:16.922Z,94843
2019-04-25T14:00:26.410Z,94838
2019-04-25T14:01:36.923Z,94832
2019-04-25T14:02:47.441Z,94836
2019-04-25T14:03:56.954Z,94828
2019-04-25T14:05:07.458Z,94826
2019-04-25T14:06:17.994Z,94825
2019-04-25T14:07:27.523Z,94826
2019-04-25T14:08:37.032Z,94825
2019-04-25T14:09:46.538Z,94820
2019-04-25T14:10:56.049Z,94823
2019-04-25T14:12:06.543Z,94822
2019-04-25T14:13:17.040Z,94824
2019-04-25T14:14:27.528Z,94825
2019-04-25T14:15:38.021Z,94818
2019-04-25T14:16:47.537Z,94828
2019-04-25T14:17:57.049Z,94822
2019-04-25T14:19:06.574Z,94814
2019-04-25T14:20:16.102Z,94816
2019-04-25T14:21:27.276Z,94810
2019-04-25T14:22:36.134Z,94816
2019-04-25T14:23:46.637Z,94807
2019-04-25T14:24:57.144Z,94822
2019-04-25T14:26:06.666Z,94811
2019-04-25T14:27:17.171Z,94811
2019-04-25T14:28:29.419Z,94813
2019-04-25T14:29:38.141Z,94824
2019-04-25T14:30:48.636Z,94817
2019-04-25T14:31:58.168Z,94814
2019-04-25T14:33:07.669Z,94820
2019-04-25T14:34:17.178Z,94817
2019-04-25T14:35:27.675Z,94818
2019-04-25T14:36:37.213Z,94810
2019-04-25T14:37:46.727Z,94810
2019-04-25T14:38:57.254Z,94818
2019-04-25T14:40:06.765Z,94817
2019-04-25T14:41:17.270Z,94814
2019-04-25T14:42:26.770Z,94815
2019-04-25T14:43:36.279Z,94817
2019-04-25T14:44:45.787Z,94825
2019-04-25T14:45:56.208Z,94822
2019-04-25T14:47:04.809Z,94812
2019-04-25T14:48:14.315Z,94813
2019-04-25T14:49:24.024Z,94812
2019-04-25T14:50:33.999Z,94807
2019-04-25T14:51:42.896Z,94809
2019-04-25T14:52:52.478Z,94813
2019-04-25T14:54:02.414Z,94813
2019-04-25T14:55:11.929Z,94801
2019-04-25T14:56:21.496Z,94811
2019-04-25T14:57:31.859Z,94813
2019-04-25T14:58:40.472Z,94804
2019-04-25T14:59:50.243Z,94803